sensor_id;sensor_type;location;lat;lon;timestamp;P1;durP1;ratioP1;P2;durP2;ratioP2
66429;SDS011;53242;51.694;10.006;2022-12-20T00:00:36;21.95;;;7.65;;
66429;SDS011;53242;51.694;10.006;2022-12-20T00:03:03;25.15;;;9.55;;
66429;SDS011;53242;51.694;10.006;2022-12-20T00:05:26;26.33;;;8.40;;
66429;SDS011;53242;51.694;10.006;2022-12-20T00:07:48;20.38;;;7.35;;
66429;SDS011;53242;51.694;10.006;2022-12-20T00:10:11;21.80;;;7.22;;
66429;SDS011;53242;51.694;10.006;2022-12-20T00:12:34;26.23;;;8.93;;
66429;SDS011;53242;51.694;10.006;2022-12-20T00:14:57;24.67;;;7.72;;
66429;SDS011;53242;51.694;10.006;2022-12-20T00:17:20;26.15;;;7.95;;
66429;SDS011;53242;51.694;10.006;2022-12-20T00:19:43;22.95;;;7.78;;
66429;SDS011;53242;51.694;10.006;2022-12-20T00:22:05;26.52;;;8.88;;
66429;SDS011;53242;51.694;10.006;2022-12-20T00:24:28;19.83;;;6.35;;
66429;SDS011;53242;51.694;10.006;2022-12-20T00:26:50;26.30;;;9.07;;
66429;SDS011;53242;51.694;10.006;2022-12-20T00:29:13;25.77;;;8.77;;
66429;SDS011;53242;51.694;10.006;2022-12-20T00:31:35;28.33;;;8.30;;
66429;SDS011;53242;51.694;10.006;2022-12-20T00:33:58;23.15;;;7.32;;
66429;SDS011;53242;51.694;10.006;2022-12-20T00:36:25;24.10;;;7.80;;
66429;SDS011;53242;51.694;10.006;2022-12-20T00:38:49;23.58;;;7.88;;
66429;SDS011;53242;51.694;10.006;2022-12-20T00:41:17;20.45;;;6.97;;
66429;SDS011;53242;51.694;10.006;2022-12-20T00:43:41;19.08;;;6.07;;
66429;SDS011;53242;51.694;10.006;2022-12-20T00:46:06;22.88;;;8.30;;
66429;SDS011;53242;51.694;10.006;2022-12-20T00:48:30;24.27;;;6.97;;
66429;SDS011;53242;51.694;10.006;2022-12-20T00:51:00;22.27;;;8.73;;
66429;SDS011;53242;51.694;10.006;2022-12-20T00:53:27;22.60;;;8.02;;
66429;SDS011;53242;51.694;10.006;2022-12-20T00:55:50;26.77;;;8.73;;
66429;SDS011;53242;51.694;10.006;2022-12-20T00:58:13;15.63;;;5.93;;
66429;SDS011;53242;51.694;10.006;2022-12-20T01:00:36;26.65;;;8.95;;
66429;SDS011;53242;51.694;10.006;2022-12-20T01:02:58;20.73;;;6.60;;
66429;SDS011;53242;51.694;10.006;2022-12-20T01:05:22;19.17;;;7.18;;
66429;SDS011;53242;51.694;10.006;2022-12-20T01:07:44;24.52;;;7.97;;
66429;SDS011;53242;51.694;10.006;2022-12-20T01:10:07;21.50;;;8.10;;
66429;SDS011;53242;51.694;10.006;2022-12-20T01:12:30;20.27;;;6.40;;
66429;SDS011;53242;51.694;10.006;2022-12-20T01:14:53;17.67;;;6.68;;
66429;SDS011;53242;51.694;10.006;2022-12-20T01:17:16;18.85;;;6.28;;
66429;SDS011;53242;51.694;10.006;2022-12-20T01:19:39;19.02;;;6.85;;
66429;SDS011;53242;51.694;10.006;2022-12-20T01:22:02;18.58;;;6.75;;
66429;SDS011;53242;51.694;10.006;2022-12-20T01:24:25;16.80;;;6.22;;
66429;SDS011;53242;51.694;10.006;2022-12-20T01:26:47;21.50;;;6.63;;
66429;SDS011;53242;51.694;10.006;2022-12-20T01:29:10;22.02;;;7.47;;
66429;SDS011;53242;51.694;10.006;2022-12-20T01:31:33;23.75;;;6.97;;
66429;SDS011;53242;51.694;10.006;2022-12-20T01:33:55;21.65;;;7.60;;
66429;SDS011;53242;51.694;10.006;2022-12-20T01:36:19;19.73;;;6.63;;
66429;SDS011;53242;51.694;10.006;2022-12-20T01:38:46;19.05;;;7.18;;
66429;SDS011;53242;51.694;10.006;2022-12-20T01:41:10;23.70;;;8.40;;
66429;SDS011;53242;51.694;10.006;2022-12-20T01:46:14;23.38;;;7.53;;
66429;SDS011;53242;51.694;10.006;2022-12-20T01:48:37;20.23;;;7.72;;
66429;SDS011;53242;51.694;10.006;2022-12-20T01:51:01;22.92;;;8.13;;
66429;SDS011;53242;51.694;10.006;2022-12-20T01:53:24;25.08;;;8.10;;
66429;SDS011;53242;51.694;10.006;2022-12-20T01:55:47;22.50;;;8.25;;
66429;SDS011;53242;51.694;10.006;2022-12-20T01:58:11;23.77;;;8.43;;
66429;SDS011;53242;51.694;10.006;2022-12-20T02:00:35;23.85;;;7.93;;
66429;SDS011;53242;51.694;10.006;2022-12-20T02:02:59;24.98;;;8.73;;
66429;SDS011;53242;51.694;10.006;2022-12-20T02:05:25;22.30;;;7.35;;
66429;SDS011;53242;51.694;10.006;2022-12-20T02:07:49;23.10;;;7.75;;
66429;SDS011;53242;51.694;10.006;2022-12-20T02:10:14;24.42;;;8.30;;
66429;SDS011;53242;51.694;10.006;2022-12-20T02:12:41;20.60;;;8.18;;
66429;SDS011;53242;51.694;10.006;2022-12-20T02:25:50;20.27;;;7.30;;
66429;SDS011;53242;51.694;10.006;2022-12-20T02:31:09;19.83;;;7.82;;
66429;SDS011;53242;51.694;10.006;2022-12-20T02:33:40;21.77;;;7.88;;
66429;SDS011;53242;51.694;10.006;2022-12-20T02:36:04;25.90;;;8.60;;
66429;SDS011;53242;51.694;10.006;2022-12-20T02:41:03;24.95;;;8.07;;
66429;SDS011;53242;51.694;10.006;2022-12-20T02:43:29;22.83;;;8.05;;
66429;SDS011;53242;51.694;10.006;2022-12-20T02:46:12;24.45;;;8.48;;
66429;SDS011;53242;51.694;10.006;2022-12-20T02:48:36;23.70;;;8.18;;
66429;SDS011;53242;51.694;10.006;2022-12-20T02:51:02;23.80;;;8.65;;
66429;SDS011;53242;51.694;10.006;2022-12-20T02:53:26;23.02;;;7.97;;
66429;SDS011;53242;51.694;10.006;2022-12-20T02:55:55;23.30;;;7.70;;
66429;SDS011;53242;51.694;10.006;2022-12-20T03:01:00;20.67;;;7.47;;
66429;SDS011;53242;51.694;10.006;2022-12-20T03:03:31;23.77;;;7.97;;
66429;SDS011;53242;51.694;10.006;2022-12-20T03:05:55;24.17;;;8.95;;
66429;SDS011;53242;51.694;10.006;2022-12-20T03:08:18;22.73;;;7.25;;
66429;SDS011;53242;51.694;10.006;2022-12-20T03:10:42;23.25;;;8.23;;
66429;SDS011;53242;51.694;10.006;2022-12-20T03:13:05;23.35;;;7.90;;
66429;SDS011;53242;51.694;10.006;2022-12-20T03:15:30;26.35;;;8.45;;
66429;SDS011;53242;51.694;10.006;2022-12-20T03:17:54;25.83;;;8.27;;
66429;SDS011;53242;51.694;10.006;2022-12-20T03:20:18;22.45;;;7.90;;
66429;SDS011;53242;51.694;10.006;2022-12-20T03:22:40;26.05;;;8.95;;
66429;SDS011;53242;51.694;10.006;2022-12-20T03:25:03;23.98;;;7.45;;
66429;SDS011;53242;51.694;10.006;2022-12-20T03:27:27;22.48;;;7.57;;
66429;SDS011;53242;51.694;10.006;2022-12-20T03:29:51;23.05;;;8.80;;
66429;SDS011;53242;51.694;10.006;2022-12-20T03:32:13;20.33;;;6.93;;
66429;SDS011;53242;51.694;10.006;2022-12-20T03:34:39;20.50;;;7.13;;
66429;SDS011;53242;51.694;10.006;2022-12-20T03:37:01;24.73;;;8.48;;
66429;SDS011;53242;51.694;10.006;2022-12-20T03:39:24;21.75;;;6.78;;
66429;SDS011;53242;51.694;10.006;2022-12-20T03:41:50;21.13;;;7.57;;
66429;SDS011;53242;51.694;10.006;2022-12-20T03:44:14;22.00;;;7.97;;
66429;SDS011;53242;51.694;10.006;2022-12-20T03:46:36;25.88;;;9.07;;
66429;SDS011;53242;51.694;10.006;2022-12-20T03:49:00;26.70;;;8.35;;
66429;SDS011;53242;51.694;10.006;2022-12-20T03:51:24;24.42;;;8.52;;
66429;SDS011;53242;51.694;10.006;2022-12-20T03:53:46;24.30;;;8.25;;
66429;SDS011;53242;51.694;10.006;2022-12-20T03:56:10;24.83;;;8.75;;
66429;SDS011;53242;51.694;10.006;2022-12-20T03:58:32;23.42;;;7.93;;
66429;SDS011;53242;51.694;10.006;2022-12-20T04:00:55;24.75;;;8.18;;
66429;SDS011;53242;51.694;10.006;2022-12-20T04:03:37;21.95;;;7.55;;
66429;SDS011;53242;51.694;10.006;2022-12-20T04:06:00;23.10;;;6.88;;
66429;SDS011;53242;51.694;10.006;2022-12-20T04:08:23;20.42;;;7.15;;
66429;SDS011;53242;51.694;10.006;2022-12-20T04:10:46;20.73;;;6.30;;
66429;SDS011;53242;51.694;10.006;2022-12-20T04:13:33;16.73;;;5.20;;
66429;SDS011;53242;51.694;10.006;2022-12-20T04:15:56;10.57;;;3.95;;
66429;SDS011;53242;51.694;10.006;2022-12-20T04:18:21;13.95;;;4.47;;
66429;SDS011;53242;51.694;10.006;2022-12-20T04:20:43;21.80;;;6.10;;
66429;SDS011;53242;51.694;10.006;2022-12-20T04:23:14;11.55;;;4.53;;
66429;SDS011;53242;51.694;10.006;2022-12-20T04:25:37;19.73;;;7.50;;
66429;SDS011;53242;51.694;10.006;2022-12-20T04:28:02;19.15;;;6.28;;
66429;SDS011;53242;51.694;10.006;2022-12-20T04:30:24;22.38;;;6.97;;
66429;SDS011;53242;51.694;10.006;2022-12-20T04:32:47;19.67;;;6.78;;
66429;SDS011;53242;51.694;10.006;2022-12-20T04:35:10;22.15;;;7.57;;
66429;SDS011;53242;51.694;10.006;2022-12-20T04:37:36;23.95;;;8.30;;
66429;SDS011;53242;51.694;10.006;2022-12-20T04:39:59;21.83;;;7.70;;
66429;SDS011;53242;51.694;10.006;2022-12-20T04:42:31;22.50;;;8.07;;
66429;SDS011;53242;51.694;10.006;2022-12-20T04:44:55;21.42;;;7.68;;
66429;SDS011;53242;51.694;10.006;2022-12-20T04:47:21;22.83;;;8.70;;
66429;SDS011;53242;51.694;10.006;2022-12-20T04:49:44;22.67;;;7.68;;
66429;SDS011;53242;51.694;10.006;2022-12-20T04:52:06;22.15;;;8.13;;
66429;SDS011;53242;51.694;10.006;2022-12-20T04:54:49;21.40;;;7.72;;
66429;SDS011;53242;51.694;10.006;2022-12-20T04:57:17;22.25;;;8.35;;
66429;SDS011;53242;51.694;10.006;2022-12-20T04:59:40;24.88;;;7.90;;
66429;SDS011;53242;51.694;10.006;2022-12-20T05:02:03;23.17;;;7.88;;
66429;SDS011;53242;51.694;10.006;2022-12-20T05:04:41;23.15;;;8.75;;
66429;SDS011;53242;51.694;10.006;2022-12-20T05:07:04;24.38;;;8.40;;
66429;SDS011;53242;51.694;10.006;2022-12-20T05:09:27;23.80;;;8.48;;
66429;SDS011;53242;51.694;10.006;2022-12-20T05:11:51;22.17;;;7.93;;
66429;SDS011;53242;51.694;10.006;2022-12-20T05:14:13;21.23;;;7.95;;
66429;SDS011;53242;51.694;10.006;2022-12-20T05:16:36;20.33;;;7.70;;
66429;SDS011;53242;51.694;10.006;2022-12-20T05:18:58;19.10;;;6.30;;
66429;SDS011;53242;51.694;10.006;2022-12-20T05:21:21;18.77;;;7.65;;
66429;SDS011;53242;51.694;10.006;2022-12-20T05:24:03;23.00;;;8.95;;
66429;SDS011;53242;51.694;10.006;2022-12-20T05:27:10;24.33;;;8.45;;
66429;SDS011;53242;51.694;10.006;2022-12-20T05:29:33;25.77;;;10.23;;
66429;SDS011;53242;51.694;10.006;2022-12-20T05:31:56;24.58;;;7.72;;
66429;SDS011;53242;51.694;10.006;2022-12-20T05:34:19;27.15;;;8.20;;
66429;SDS011;53242;51.694;10.006;2022-12-20T05:36:46;21.02;;;7.20;;
66429;SDS011;53242;51.694;10.006;2022-12-20T05:39:09;18.85;;;7.13;;
66429;SDS011;53242;51.694;10.006;2022-12-20T05:41:35;21.25;;;7.68;;
66429;SDS011;53242;51.694;10.006;2022-12-20T05:43:58;22.05;;;7.47;;
66429;SDS011;53242;51.694;10.006;2022-12-20T05:46:21;19.77;;;6.90;;
66429;SDS011;53242;51.694;10.006;2022-12-20T05:48:51;19.67;;;7.25;;
66429;SDS011;53242;51.694;10.006;2022-12-20T05:51:14;19.08;;;7.28;;
66429;SDS011;53242;51.694;10.006;2022-12-20T05:53:48;27.40;;;9.95;;
66429;SDS011;53242;51.694;10.006;2022-12-20T05:56:14;64.47;;;26.75;;
66429;SDS011;53242;51.694;10.006;2022-12-20T05:58:36;31.25;;;12.25;;
66429;SDS011;53242;51.694;10.006;2022-12-20T06:01:01;31.10;;;10.82;;
66429;SDS011;53242;51.694;10.006;2022-12-20T06:03:28;25.80;;;9.10;;
66429;SDS011;53242;51.694;10.006;2022-12-20T06:05:51;30.10;;;10.65;;
66429;SDS011;53242;51.694;10.006;2022-12-20T06:08:20;31.13;;;10.90;;
66429;SDS011;53242;51.694;10.006;2022-12-20T06:10:44;23.10;;;8.10;;
66429;SDS011;53242;51.694;10.006;2022-12-20T06:13:10;23.00;;;7.43;;
66429;SDS011;53242;51.694;10.006;2022-12-20T06:15:33;21.95;;;7.50;;
66429;SDS011;53242;51.694;10.006;2022-12-20T06:17:56;19.48;;;7.22;;
66429;SDS011;53242;51.694;10.006;2022-12-20T06:20:19;27.63;;;9.93;;
66429;SDS011;53242;51.694;10.006;2022-12-20T06:22:44;28.55;;;9.68;;
66429;SDS011;53242;51.694;10.006;2022-12-20T06:25:08;26.48;;;9.13;;
66429;SDS011;53242;51.694;10.006;2022-12-20T06:27:34;30.85;;;11.18;;
66429;SDS011;53242;51.694;10.006;2022-12-20T06:30:06;26.85;;;9.88;;
66429;SDS011;53242;51.694;10.006;2022-12-20T06:32:41;21.73;;;7.47;;
66429;SDS011;53242;51.694;10.006;2022-12-20T06:35:05;20.15;;;7.35;;
66429;SDS011;53242;51.694;10.006;2022-12-20T06:37:28;17.98;;;6.53;;
66429;SDS011;53242;51.694;10.006;2022-12-20T06:39:50;24.35;;;7.50;;
66429;SDS011;53242;51.694;10.006;2022-12-20T06:42:13;22.95;;;7.22;;
66429;SDS011;53242;51.694;10.006;2022-12-20T06:44:37;18.83;;;6.32;;
66429;SDS011;53242;51.694;10.006;2022-12-20T06:47:00;20.85;;;6.38;;
66429;SDS011;53242;51.694;10.006;2022-12-20T06:49:23;16.13;;;6.00;;
66429;SDS011;53242;51.694;10.006;2022-12-20T06:51:46;26.83;;;7.82;;
66429;SDS011;53242;51.694;10.006;2022-12-20T06:54:09;19.95;;;7.50;;
66429;SDS011;53242;51.694;10.006;2022-12-20T06:56:31;13.57;;;5.43;;
66429;SDS011;53242;51.694;10.006;2022-12-20T06:58:54;20.15;;;6.22;;
66429;SDS011;53242;51.694;10.006;2022-12-20T07:01:18;18.92;;;6.78;;
66429;SDS011;53242;51.694;10.006;2022-12-20T07:03:41;21.42;;;7.18;;
66429;SDS011;53242;51.694;10.006;2022-12-20T07:06:03;17.08;;;5.65;;
66429;SDS011;53242;51.694;10.006;2022-12-20T07:08:26;16.65;;;5.50;;
66429;SDS011;53242;51.694;10.006;2022-12-20T07:10:48;16.73;;;5.90;;
66429;SDS011;53242;51.694;10.006;2022-12-20T07:13:11;15.88;;;5.43;;
66429;SDS011;53242;51.694;10.006;2022-12-20T07:15:33;15.57;;;5.85;;
66429;SDS011;53242;51.694;10.006;2022-12-20T07:17:56;17.88;;;6.05;;
66429;SDS011;53242;51.694;10.006;2022-12-20T07:20:18;22.58;;;8.63;;
66429;SDS011;53242;51.694;10.006;2022-12-20T07:22:41;18.38;;;6.55;;
66429;SDS011;53242;51.694;10.006;2022-12-20T07:25:03;20.48;;;8.63;;
66429;SDS011;53242;51.694;10.006;2022-12-20T07:27:26;24.13;;;8.88;;
66429;SDS011;53242;51.694;10.006;2022-12-20T07:29:48;19.23;;;7.97;;
66429;SDS011;53242;51.694;10.006;2022-12-20T07:32:12;25.85;;;9.27;;
66429;SDS011;53242;51.694;10.006;2022-12-20T07:34:35;19.88;;;7.55;;
66429;SDS011;53242;51.694;10.006;2022-12-20T07:36:58;22.52;;;9.25;;
66429;SDS011;53242;51.694;10.006;2022-12-20T07:39:21;22.45;;;7.93;;
66429;SDS011;53242;51.694;10.006;2022-12-20T07:41:43;20.20;;;7.65;;
66429;SDS011;53242;51.694;10.006;2022-12-20T07:44:11;18.98;;;7.80;;
66429;SDS011;53242;51.694;10.006;2022-12-20T07:46:33;21.60;;;8.40;;
66429;SDS011;53242;51.694;10.006;2022-12-20T07:48:56;18.45;;;7.78;;
66429;SDS011;53242;51.694;10.006;2022-12-20T07:51:28;23.73;;;7.97;;
66429;SDS011;53242;51.694;10.006;2022-12-20T07:53:58;21.35;;;7.65;;
66429;SDS011;53242;51.694;10.006;2022-12-20T07:56:24;21.25;;;7.43;;
66429;SDS011;53242;51.694;10.006;2022-12-20T07:58:48;19.83;;;7.20;;
66429;SDS011;53242;51.694;10.006;2022-12-20T08:01:19;21.60;;;9.40;;
66429;SDS011;53242;51.694;10.006;2022-12-20T08:03:43;29.55;;;9.75;;
66429;SDS011;53242;51.694;10.006;2022-12-20T08:06:09;33.60;;;11.38;;
66429;SDS011;53242;51.694;10.006;2022-12-20T08:08:32;32.70;;;12.57;;
66429;SDS011;53242;51.694;10.006;2022-12-20T08:10:57;26.63;;;9.80;;
66429;SDS011;53242;51.694;10.006;2022-12-20T08:13:20;27.42;;;10.20;;
66429;SDS011;53242;51.694;10.006;2022-12-20T08:15:42;32.65;;;11.35;;
66429;SDS011;53242;51.694;10.006;2022-12-20T08:18:05;35.65;;;12.23;;
66429;SDS011;53242;51.694;10.006;2022-12-20T08:20:27;24.92;;;8.75;;
66429;SDS011;53242;51.694;10.006;2022-12-20T08:22:50;25.02;;;9.13;;
66429;SDS011;53242;51.694;10.006;2022-12-20T08:25:12;21.75;;;7.78;;
66429;SDS011;53242;51.694;10.006;2022-12-20T08:27:35;25.42;;;8.15;;
66429;SDS011;53242;51.694;10.006;2022-12-20T08:29:57;22.27;;;7.97;;
66429;SDS011;53242;51.694;10.006;2022-12-20T08:32:19;28.65;;;11.77;;
66429;SDS011;53242;51.694;10.006;2022-12-20T08:34:42;25.98;;;9.27;;
66429;SDS011;53242;51.694;10.006;2022-12-20T08:37:04;23.75;;;9.57;;
66429;SDS011;53242;51.694;10.006;2022-12-20T08:39:27;17.92;;;7.40;;
66429;SDS011;53242;51.694;10.006;2022-12-20T08:41:49;19.10;;;7.20;;
66429;SDS011;53242;51.694;10.006;2022-12-20T08:44:12;21.45;;;8.27;;
66429;SDS011;53242;51.694;10.006;2022-12-20T08:46:35;21.05;;;8.35;;
66429;SDS011;53242;51.694;10.006;2022-12-20T08:48:58;18.52;;;7.22;;
66429;SDS011;53242;51.694;10.006;2022-12-20T08:51:20;18.08;;;7.10;;
66429;SDS011;53242;51.694;10.006;2022-12-20T08:53:43;20.75;;;7.63;;
66429;SDS011;53242;51.694;10.006;2022-12-20T08:56:06;19.15;;;6.72;;
66429;SDS011;53242;51.694;10.006;2022-12-20T08:58:28;17.80;;;6.68;;
66429;SDS011;53242;51.694;10.006;2022-12-20T09:00:51;15.63;;;6.50;;
66429;SDS011;53242;51.694;10.006;2022-12-20T09:03:13;16.98;;;6.05;;
66429;SDS011;53242;51.694;10.006;2022-12-20T09:05:41;15.80;;;5.80;;
66429;SDS011;53242;51.694;10.006;2022-12-20T09:08:05;16.23;;;6.40;;
66429;SDS011;53242;51.694;10.006;2022-12-20T09:10:27;19.23;;;7.38;;
66429;SDS011;53242;51.694;10.006;2022-12-20T09:12:50;18.67;;;7.60;;
66429;SDS011;53242;51.694;10.006;2022-12-20T09:15:12;21.40;;;6.60;;
66429;SDS011;53242;51.694;10.006;2022-12-20T09:17:35;18.83;;;7.40;;
66429;SDS011;53242;51.694;10.006;2022-12-20T09:19:57;23.17;;;8.05;;
66429;SDS011;53242;51.694;10.006;2022-12-20T09:22:20;20.48;;;6.95;;
66429;SDS011;53242;51.694;10.006;2022-12-20T09:24:42;20.92;;;6.95;;
66429;SDS011;53242;51.694;10.006;2022-12-20T09:27:04;16.55;;;6.18;;
66429;SDS011;53242;51.694;10.006;2022-12-20T09:29:27;17.75;;;6.55;;
66429;SDS011;53242;51.694;10.006;2022-12-20T09:31:49;17.65;;;6.32;;
66429;SDS011;53242;51.694;10.006;2022-12-20T09:34:11;20.13;;;6.95;;
66429;SDS011;53242;51.694;10.006;2022-12-20T09:36:34;18.65;;;7.15;;
66429;SDS011;53242;51.694;10.006;2022-12-20T09:38:57;16.73;;;6.47;;
66429;SDS011;53242;51.694;10.006;2022-12-20T09:41:33;20.65;;;6.95;;
66429;SDS011;53242;51.694;10.006;2022-12-20T09:44:01;17.05;;;6.97;;
66429;SDS011;53242;51.694;10.006;2022-12-20T09:46:26;16.35;;;6.53;;
66429;SDS011;53242;51.694;10.006;2022-12-20T09:48:49;23.83;;;8.13;;
66429;SDS011;53242;51.694;10.006;2022-12-20T10:01:26;20.92;;;7.75;;
66429;SDS011;53242;51.694;10.006;2022-12-20T10:03:50;21.75;;;8.13;;
66429;SDS011;53242;51.694;10.006;2022-12-20T10:09:20;17.50;;;6.68;;
66429;SDS011;53242;51.694;10.006;2022-12-20T10:12:11;18.63;;;6.53;;
66429;SDS011;53242;51.694;10.006;2022-12-20T10:23:16;13.55;;;4.63;;
66429;SDS011;53242;51.694;10.006;2022-12-20T10:25:22;15.90;;;6.32;;
66429;SDS011;53242;51.694;10.006;2022-12-20T10:27:52;13.20;;;5.72;;
66429;SDS011;53242;51.694;10.006;2022-12-20T10:30:19;19.02;;;6.78;;
66429;SDS011;53242;51.694;10.006;2022-12-20T10:32:45;18.92;;;6.10;;
66429;SDS011;53242;51.694;10.006;2022-12-20T10:37:36;21.45;;;5.68;;
66429;SDS011;53242;51.694;10.006;2022-12-20T10:39:59;14.50;;;5.38;;
66429;SDS011;53242;51.694;10.006;2022-12-20T10:42:42;13.73;;;5.18;;
66429;SDS011;53242;51.694;10.006;2022-12-20T10:45:09;17.65;;;5.05;;
66429;SDS011;53242;51.694;10.006;2022-12-20T10:47:56;11.80;;;4.28;;
66429;SDS011;53242;51.694;10.006;2022-12-20T10:50:21;13.00;;;4.32;;
66429;SDS011;53242;51.694;10.006;2022-12-20T10:53:02;11.65;;;4.28;;
66429;SDS011;53242;51.694;10.006;2022-12-20T10:55:39;10.88;;;4.05;;
66429;SDS011;53242;51.694;10.006;2022-12-20T10:58:10;11.07;;;4.10;;
66429;SDS011;53242;51.694;10.006;2022-12-20T11:00:33;11.68;;;4.28;;
66429;SDS011;53242;51.694;10.006;2022-12-20T11:03:04;10.52;;;3.58;;
66429;SDS011;53242;51.694;10.006;2022-12-20T11:05:39;10.88;;;4.32;;
66429;SDS011;53242;51.694;10.006;2022-12-20T11:08:14;12.73;;;4.82;;
66429;SDS011;53242;51.694;10.006;2022-12-20T11:10:38;14.35;;;4.80;;
66429;SDS011;53242;51.694;10.006;2022-12-20T11:13:01;13.40;;;4.10;;
66429;SDS011;53242;51.694;10.006;2022-12-20T11:15:26;13.77;;;4.18;;
66429;SDS011;53242;51.694;10.006;2022-12-20T11:17:56;11.13;;;4.63;;
66429;SDS011;53242;51.694;10.006;2022-12-20T11:23:19;12.93;;;4.45;;
66429;SDS011;53242;51.694;10.006;2022-12-20T11:34:24;8.93;;;3.92;;
66429;SDS011;53242;51.694;10.006;2022-12-20T11:45:14;10.20;;;3.50;;
66429;SDS011;53242;51.694;10.006;2022-12-20T11:47:46;9.25;;;3.17;;
66429;SDS011;53242;51.694;10.006;2022-12-20T11:53:34;9.05;;;3.05;;
66429;SDS011;53242;51.694;10.006;2022-12-20T11:55:59;8.30;;;3.33;;
66429;SDS011;53242;51.694;10.006;2022-12-20T11:58:31;7.88;;;3.22;;
66429;SDS011;53242;51.694;10.006;2022-12-20T12:01:06;7.72;;;3.00;;
66429;SDS011;53242;51.694;10.006;2022-12-20T12:03:35;7.30;;;2.55;;
66429;SDS011;53242;51.694;10.006;2022-12-20T12:06:00;9.88;;;2.90;;
66429;SDS011;53242;51.694;10.006;2022-12-20T12:08:48;11.88;;;2.80;;
66429;SDS011;53242;51.694;10.006;2022-12-20T12:11:21;7.97;;;2.42;;
66429;SDS011;53242;51.694;10.006;2022-12-20T12:13:48;7.50;;;2.80;;
66429;SDS011;53242;51.694;10.006;2022-12-20T12:16:18;8.05;;;2.78;;
66429;SDS011;53242;51.694;10.006;2022-12-20T12:18:48;7.45;;;2.20;;
66429;SDS011;53242;51.694;10.006;2022-12-20T12:21:23;8.13;;;2.63;;
66429;SDS011;53242;51.694;10.006;2022-12-20T12:23:56;8.85;;;2.70;;
66429;SDS011;53242;51.694;10.006;2022-12-20T12:26:30;8.25;;;2.85;;
66429;SDS011;53242;51.694;10.006;2022-12-20T12:28:59;7.47;;;2.67;;
66429;SDS011;53242;51.694;10.006;2022-12-20T12:31:39;6.60;;;2.90;;
66429;SDS011;53242;51.694;10.006;2022-12-20T12:39:41;7.50;;;2.83;;
66429;SDS011;53242;51.694;10.006;2022-12-20T12:47:52;7.72;;;2.83;;
66429;SDS011;53242;51.694;10.006;2022-12-20T12:50:23;7.15;;;2.70;;
66429;SDS011;53242;51.694;10.006;2022-12-20T12:52:51;8.27;;;2.78;;
66429;SDS011;53242;51.694;10.006;2022-12-20T12:55:39;10.30;;;2.72;;
66429;SDS011;53242;51.694;10.006;2022-12-20T13:03:14;6.95;;;2.38;;
66429;SDS011;53242;51.694;10.006;2022-12-20T13:05:48;5.35;;;2.38;;
66429;SDS011;53242;51.694;10.006;2022-12-20T13:08:15;4.85;;;2.15;;
66429;SDS011;53242;51.694;10.006;2022-12-20T13:13:01;7.90;;;2.65;;
66429;SDS011;53242;51.694;10.006;2022-12-20T13:17:59;6.70;;;2.47;;
66429;SDS011;53242;51.694;10.006;2022-12-20T13:20:29;6.55;;;2.85;;
66429;SDS011;53242;51.694;10.006;2022-12-20T13:25:35;6.45;;;2.20;;
66429;SDS011;53242;51.694;10.006;2022-12-20T13:30:45;5.90;;;2.20;;
66429;SDS011;53242;51.694;10.006;2022-12-20T13:33:15;7.20;;;2.55;;
66429;SDS011;53242;51.694;10.006;2022-12-20T13:36:01;6.32;;;1.95;;
66429;SDS011;53242;51.694;10.006;2022-12-20T13:40:53;6.25;;;2.17;;
66429;SDS011;53242;51.694;10.006;2022-12-20T13:45:42;8.75;;;2.63;;
66429;SDS011;53242;51.694;10.006;2022-12-20T13:48:09;7.93;;;2.58;;
66429;SDS011;53242;51.694;10.006;2022-12-20T13:50:37;8.55;;;2.90;;
66429;SDS011;53242;51.694;10.006;2022-12-20T13:53:02;9.27;;;3.40;;
66429;SDS011;53242;51.694;10.006;2022-12-20T13:55:30;8.10;;;2.67;;
66429;SDS011;53242;51.694;10.006;2022-12-20T13:57:54;8.05;;;3.13;;
66429;SDS011;53242;51.694;10.006;2022-12-20T14:00:18;6.50;;;2.55;;
66429;SDS011;53242;51.694;10.006;2022-12-20T14:02:46;8.85;;;3.40;;
66429;SDS011;53242;51.694;10.006;2022-12-20T14:05:16;8.30;;;2.80;;
66429;SDS011;53242;51.694;10.006;2022-12-20T14:07:40;7.18;;;2.90;;
66429;SDS011;53242;51.694;10.006;2022-12-20T14:10:15;7.57;;;2.47;;
66429;SDS011;53242;51.694;10.006;2022-12-20T14:12:44;8.57;;;2.60;;
66429;SDS011;53242;51.694;10.006;2022-12-20T14:15:19;10.05;;;2.50;;
66429;SDS011;53242;51.694;10.006;2022-12-20T14:17:46;9.23;;;2.80;;
66429;SDS011;53242;51.694;10.006;2022-12-20T14:22:34;6.47;;;2.42;;
66429;SDS011;53242;51.694;10.006;2022-12-20T14:24:57;8.52;;;2.70;;
66429;SDS011;53242;51.694;10.006;2022-12-20T14:27:20;7.45;;;2.97;;
66429;SDS011;53242;51.694;10.006;2022-12-20T14:29:42;9.70;;;3.05;;
66429;SDS011;53242;51.694;10.006;2022-12-20T14:32:14;7.28;;;3.38;;
66429;SDS011;53242;51.694;10.006;2022-12-20T14:34:39;8.50;;;2.75;;
66429;SDS011;53242;51.694;10.006;2022-12-20T14:37:23;9.23;;;3.22;;
66429;SDS011;53242;51.694;10.006;2022-12-20T14:39:54;11.05;;;4.50;;
66429;SDS011;53242;51.694;10.006;2022-12-20T14:42:22;11.15;;;4.07;;
66429;SDS011;53242;51.694;10.006;2022-12-20T14:44:50;10.07;;;4.07;;
66429;SDS011;53242;51.694;10.006;2022-12-20T14:47:24;11.40;;;3.80;;
66429;SDS011;53242;51.694;10.006;2022-12-20T14:49:51;8.63;;;3.50;;
66429;SDS011;53242;51.694;10.006;2022-12-20T14:52:34;9.90;;;4.10;;
66429;SDS011;53242;51.694;10.006;2022-12-20T14:55:04;12.18;;;4.88;;
66429;SDS011;53242;51.694;10.006;2022-12-20T14:57:31;15.18;;;5.25;;
66429;SDS011;53242;51.694;10.006;2022-12-20T15:00:01;12.77;;;4.45;;
66429;SDS011;53242;51.694;10.006;2022-12-20T15:02:34;15.35;;;5.55;;
66429;SDS011;53242;51.694;10.006;2022-12-20T15:05:06;19.00;;;7.15;;
66429;SDS011;53242;51.694;10.006;2022-12-20T15:07:49;20.60;;;7.78;;
66429;SDS011;53242;51.694;10.006;2022-12-20T15:10:11;12.45;;;4.03;;
66429;SDS011;53242;51.694;10.006;2022-12-20T15:12:34;10.55;;;3.88;;
66429;SDS011;53242;51.694;10.006;2022-12-20T15:14:57;7.43;;;2.78;;
66429;SDS011;53242;51.694;10.006;2022-12-20T15:17:19;7.68;;;2.85;;
66429;SDS011;53242;51.694;10.006;2022-12-20T15:19:42;10.85;;;4.45;;
66429;SDS011;53242;51.694;10.006;2022-12-20T15:22:04;11.25;;;3.65;;
66429;SDS011;53242;51.694;10.006;2022-12-20T15:24:34;11.60;;;4.07;;
66429;SDS011;53242;51.694;10.006;2022-12-20T15:26:56;7.55;;;3.15;;
66429;SDS011;53242;51.694;10.006;2022-12-20T15:29:22;9.13;;;3.10;;
66429;SDS011;53242;51.694;10.006;2022-12-20T15:31:46;10.35;;;3.55;;
66429;SDS011;53242;51.694;10.006;2022-12-20T15:34:14;8.50;;;3.47;;
66429;SDS011;53242;51.694;10.006;2022-12-20T15:36:44;7.30;;;3.03;;
66429;SDS011;53242;51.694;10.006;2022-12-20T15:39:08;10.55;;;3.58;;
66429;SDS011;53242;51.694;10.006;2022-12-20T15:41:32;10.25;;;4.07;;
66429;SDS011;53242;51.694;10.006;2022-12-20T15:43:56;10.15;;;4.10;;
66429;SDS011;53242;51.694;10.006;2022-12-20T15:46:24;9.35;;;3.50;;
66429;SDS011;53242;51.694;10.006;2022-12-20T15:48:47;4.45;;;1.73;;
66429;SDS011;53242;51.694;10.006;2022-12-20T15:51:16;5.35;;;2.38;;
66429;SDS011;53242;51.694;10.006;2022-12-20T15:53:45;4.32;;;1.80;;
66429;SDS011;53242;51.694;10.006;2022-12-20T15:56:10;8.50;;;3.03;;
66429;SDS011;53242;51.694;10.006;2022-12-20T15:58:38;10.20;;;3.40;;